Terminal Aerodrome Forecast
Issued by NWS Knoxville/Tri Cities, TN

Home | Current Version | Previous Version | Text Only | Print | Product List | Glossary On
Versions: 1 2 3 4 5 6 7 8 9 10 11 12 13 14 15 16 17 18 19 20 21 22 23 24 25 26 27 28 29 30 31 32 33 34 35 36
000
FTUS44 KMRX 241758 AAA
TAFCHA
TAF AMD
KCHA 241758Z 2418/2518 33008KT P6SM VCSH BKN035
     FM250000 34005KT P6SM SCT050
     FM250800 00000KT 4SM BR BKN250
     FM251300 35004KT P6SM SCT250=

USA.gov is the U.S. government's official web portal to all federal, state and local government web resources and services.